Strona główna
METAR-TAF:

METAR-TAF

Lotnisko :

Port lotniczy Madryt-Cuatro Vientos

Madryt-Cuatro Vientos, Hiszpania

Szerokość geograficzna: 40-23N, Długość geograficzna: 003-47W, wysokość: 690 m

Aktualna obserwacja pogody

Raport powstał 17 minut temu, godzina 18:30 UTC
Wiatr 16 kt od południowy zachód
Temperatura 26°C
Wilgotność 30%
Ciśnienie 1014 hPa
Widzialność 10 km lub więcej
Brak chmur poniżej 1500 m i brak chmur cumulonimbus

METAR: LEVS 181830Z 23016KT CAVOK 26/07 Q1014

czas: 20:47 (18:47 UTC)

Prognoza

Raport powstał 1 godzina i 47 minut temu, godzina 17:00 UTC
Prognoza ważna od 18 godzina 18 UTC do 19 godzina 03 UTC
Wiatr 12 kt od zachodnio-południowy zachód
Widzialność 10 km lub więcej
Brak chmur poniżej 1500 m i brak chmur cumulonimbus
Przejściowo
od 18 godzina 18 UTC do 18 godzina 20 UTC
Wiatr 15 kt od zachodnio-południowy zachód w porywach dochodzący do 25 kt

TAF: LEVS 181700Z 1818/1903 25012KT CAVOK TEMPO 1818/1820 24015G25KT

Obserwacja i prognoza pogody dla ponad 4000 lotnisk (raport METAR i TAF).

Dostępne stacje oznaczono żółtymi i czerwonymi punktami na mapie.

Najedź kursorem aby zobaczyć nazwę stacji.

Kliknij aby zobaczyć obserwacje i prognozy pogody.

Aby zmienić mapę: kliknij na zielony przycisk z czarnym krzyżykiem, aby powiększyć; na zielony przycisk z myślnikiem, aby pomniejszyć; na zielone strzałki, aby przejść do map sąsiednich.


METAR-TAF: